Springfield, Michigan
Current Conditions -  °F | °C
As of 3:53 AM on Monday 22 Dec 2014 (Local Time) from KBTL Reporting Station
Clear Clear  
Wind Chill: 22°   Ceiling: Unl
Heat Index: 29°   Visibility: 7mi
Dew Point: 22°   Wind: 7mph
Humidity: 75%   Direction: 140°SE
Pressure: 30.07"   Gusts: NA
Location:  42.2966°N, 85.2371°W
Report Text: KBTL 220853Z 14006KT 7SM CLR M02/M06 A3007 RMK AO2 SLP192 T10171056 56009
Loading
Personal Weather Stations






























Interactive Weather Map New forecast layout! Learn more

10-Day Weather Forecast

Advertisements
Track Severe Weather on mobile